Time;durP1;ratioP1;P1;durP2;ratioP2;P2;SDS_P1;SDS_P2;PMS_P1;PMS_P2;Temp;Humidity;BMP_temperature;BMP_pressure;BME280_temperature;BME280_humidity;BME280_pressure;Samples;Min_cycle;Max_cycle;Signal;HPM_P1;HPM_P2
2022/05/18 00:00:33;;;;;;;;;;;9.90;89.20;;;;;;4590845;19;19915;-20
2022/05/18 00:02:09;;;;;;;;;;;9.90;88.80;;;;;;4592345;19;20334;-20
2022/05/18 00:03:41;;;;;;;;;;;9.90;89.60;;;;;;4592352;19;19982;-20
2022/05/18 00:05:12;;;;;;;;;;;9.80;88.90;;;;;;4590963;19;19914;-20
2022/05/18 00:06:43;;;;;;;;;;;9.80;90.00;;;;;;4591966;19;19926;-19
2022/05/18 00:08:14;;;;;;;;;;;9.80;89.40;;;;;;4591768;19;19978;-19
2022/05/18 00:09:45;;;;;;;;;;;9.80;89.30;;;;;;4592208;19;20326;-20
2022/05/18 00:11:16;;;;;;;;;;;9.80;90.00;;;;;;4590537;19;19935;-19
2022/05/18 00:12:48;;;;;;;;;;;9.70;89.80;;;;;;4590265;19;19915;-19
2022/05/18 00:14:18;;;;;;;;;;;9.80;89.40;;;;;;4591150;19;19918;-20
2022/05/18 00:15:50;;;;;;;;;;;9.70;89.50;;;;;;4591349;19;19942;-20
2022/05/18 00:17:20;;;;;;;;;;;9.70;90.00;;;;;;4591799;19;19915;-20
2022/05/18 00:18:51;;;;;;;;;;;9.70;89.90;;;;;;4591694;19;19914;-19
2022/05/18 00:20:23;;;;;;;;;;;9.70;89.50;;;;;;4591250;19;19911;-20
2022/05/18 00:21:54;;;;;;;;;;;9.70;89.80;;;;;;4591306;19;20393;-20
2022/05/18 00:23:25;;;;;;;;;;;10.50;88.70;;;;;;4591777;19;19911;-19
2022/05/18 00:24:56;;;;;;;;;;;11.10;86.90;;;;;;4591811;19;19915;-21
2022/05/18 00:26:27;;;;;;;;;;;11.60;85.80;;;;;;4590007;19;19915;-20
2022/05/18 00:27:58;;;;;;;;;;;12.00;84.70;;;;;;4591124;19;19946;-21
2022/05/18 00:29:30;;;;;;;;;;;12.30;84.00;;;;;;4593582;19;19915;-21
2022/05/18 00:31:00;;;;;;;;;;;12.50;83.20;;;;;;4591996;19;20274;-21
2022/05/18 00:32:31;;;;;;;;;;;12.70;82.60;;;;;;4590580;19;19915;-20
2022/05/18 00:34:02;;;;;;;5.20;3.17;;;12.80;82.20;;;;;;4588485;19;19915;-21
2022/05/18 00:35:34;;;;;;;5.57;3.45;;;12.90;82.20;;;;;;4590271;19;20018;-21
2022/05/18 00:37:05;;;;;;;4.60;3.35;;;13.00;81.80;;;;;;4590273;19;20479;-21
2022/05/18 00:38:36;;;;;;;;;;;13.10;81.20;;;;;;4591029;19;20393;-21
2022/05/18 00:40:08;;;;;;;;;;;13.20;81.10;;;;;;4591178;19;20303;-21
2022/05/18 00:41:39;;;;;;;;;;;13.30;80.50;;;;;;4589255;19;19981;-21
2022/05/18 00:43:14;;;;;;;;;;;13.30;80.70;;;;;;4590690;19;19962;-21
2022/05/18 00:44:45;;;;;;;;;;;13.40;80.70;;;;;;4590799;19;19921;-21
2022/05/18 00:46:16;;;;;;;;;;;13.40;80.30;;;;;;4591282;19;19927;-21
2022/05/18 00:47:47;;;;;;;4.75;2.95;;;13.50;79.90;;;;;;4590595;19;19922;-21
2022/05/18 00:49:18;;;;;;;4.47;2.40;;;13.60;80.40;;;;;;4590017;19;20014;-22
2022/05/18 00:50:49;;;;;;;4.93;2.67;;;13.60;80.10;;;;;;4590264;19;20018;-21
2022/05/18 00:52:26;;;;;;;5.70;3.03;;;13.60;80.10;;;;;;4589002;19;20103;-21
2022/05/18 00:54:10;;;;;;;7.30;4.30;;;13.60;79.70;;;;;;4588070;19;20035;-21
2022/05/18 00:55:42;;;;;;;6.33;3.93;;;13.70;80.20;;;;;;4589561;19;20990;-21
2022/05/18 00:57:40;;;;;;;7.50;4.07;;;13.70;79.80;;;;;;4588667;19;20456;-21
2022/05/18 00:59:15;;;;;;;7.10;4.00;;;13.70;79.90;;;;;;4588580;19;20528;-21
2022/05/18 01:00:46;;;;;;;15.07;7.27;;;13.80;79.80;;;;;;4588368;19;20552;-21
2022/05/18 01:02:17;;;;;;;35.38;14.85;;;13.80;79.40;;;;;;4589431;19;20778;-22
2022/05/18 01:03:53;;;;;;;47.65;23.92;;;13.80;79.10;;;;;;4588577;19;20462;-21
2022/05/18 01:05:27;;;;;;;47.10;23.10;;;13.80;79.00;;;;;;4588881;19;20010;-21
2022/05/18 01:07:06;;;;;;;53.93;24.90;;;13.90;79.00;;;;;;4588509;19;20030;-21
2022/05/18 01:08:45;;;;;;;37.27;17.97;;;13.90;79.30;;;;;;4588436;19;20905;-22
2022/05/18 01:10:16;;;;;;;23.13;10.63;;;13.90;78.70;;;;;;4588969;19;20020;-21
2022/05/18 01:11:47;;;;;;;21.92;12.35;;;13.90;78.70;;;;;;4589385;19;20014;-22
2022/05/18 01:13:18;;;;;;;18.75;11.07;;;13.90;78.70;;;;;;4589861;19;20511;-21
2022/05/18 01:14:55;;;;;;;19.20;11.60;;;13.90;78.70;;;;;;4589009;19;20449;-21
2022/05/18 01:16:26;;;;;;;;;;;13.90;79.00;;;;;;4589597;19;20379;-21
2022/05/18 01:17:58;;;;;;;;;;;14.00;78.60;;;;;;4592702;19;20337;-21
2022/05/18 01:19:38;;;;;;;;;;;13.90;78.40;;;;;;4595060;19;20252;-21
2022/05/18 01:21:09;;;;;;;;;;;14.00;78.60;;;;;;4594033;19;19930;-22
2022/05/18 01:23:18;;;;;;;;;;;14.00;78.40;;;;;;4593821;19;19926;-22
2022/05/18 01:25:00;;;;;;;;;;;14.00;78.60;;;;;;4592856;19;20337;-21
2022/05/18 01:26:35;;;;;;;;;;;14.00;78.30;;;;;;4592915;19;19932;-22
2022/05/18 01:28:05;;;;;;;;;;;14.00;78.30;;;;;;4593028;19;19947;-21
2022/05/18 01:29:36;;;;;;;;;;;14.00;78.20;;;;;;4593051;19;19914;-21
2022/05/18 01:31:07;;;;;;;;;;;14.00;78.20;;;;;;4593621;19;19910;-21
2022/05/18 01:32:41;;;;;;;;;;;14.00;78.40;;;;;;4592800;19;19921;-21
2022/05/18 01:34:12;;;;;;;;;;;14.00;78.60;;;;;;4591343;19;19929;-21
2022/05/18 01:35:43;;;;;;;;;;;14.10;78.70;;;;;;4593025;19;19919;-21
2022/05/18 01:37:14;;;;;;;;;;;14.10;78.60;;;;;;4592567;19;20000;-21
2022/05/18 01:38:46;;;;;;;;;;;14.10;78.50;;;;;;4592660;19;19946;-21
2022/05/18 01:40:18;;;;;;;;;;;14.10;78.40;;;;;;4592998;19;20397;-21
2022/05/18 01:41:58;;;;;;;;;;;14.10;78.40;;;;;;4592682;19;19939;-21
2022/05/18 01:43:32;;;;;;;;;;;14.10;78.80;;;;;;4592437;19;19911;-21
2022/05/18 01:45:03;;;;;;;;;;;14.10;78.00;;;;;;4592360;19;19918;-20
2022/05/18 01:46:34;;;;;;;;;;;14.10;77.80;;;;;;4592339;19;19921;-21
2022/05/18 01:48:06;;;;;;;;;;;14.10;78.20;;;;;;4592654;19;19940;-21
2022/05/18 01:49:39;;;;;;;;;;;14.10;78.00;;;;;;4592238;19;19978;-21
2022/05/18 01:51:09;;;;;;;;;;;14.10;78.10;;;;;;4592354;19;20250;-21
2022/05/18 01:52:40;;;;;;;;;;;14.10;77.90;;;;;;4592774;19;19922;-21
2022/05/18 01:54:11;;;;;;;;;;;14.10;77.70;;;;;;4593050;19;20002;-21
2022/05/18 01:55:43;;;;;;;;;;;14.10;77.60;;;;;;4592504;19;19935;-22
2022/05/18 01:57:14;;;;;;;;;;;14.10;77.50;;;;;;4593760;19;19915;-21
2022/05/18 01:58:46;;;;;;;;;;;14.10;77.40;;;;;;4594615;19;20273;-21
2022/05/18 02:00:17;;;;;;;;;;;14.10;77.80;;;;;;4594398;19;19921;-21
2022/05/18 02:01:48;;;;;;;;;;;14.10;78.40;;;;;;4594555;19;19978;-21
2022/05/18 02:03:20;;;;;;;;;;;14.20;77.60;;;;;;4594661;19;19934;-22
2022/05/18 02:04:51;;;;;;;;;;;14.10;77.70;;;;;;4593556;19;19919;-21
2022/05/18 02:06:21;;;;;;;;;;;14.20;77.70;;;;;;4593786;19;19942;-21
2022/05/18 02:07:57;;;;;;;;;;;14.20;77.40;;;;;;4593294;19;19918;-22
2022/05/18 02:09:28;;;;;;;;;;;14.20;77.80;;;;;;4593879;19;19915;-21
2022/05/18 02:10:58;;;;;;;;;;;14.10;77.40;;;;;;4593114;19;19939;-21
2022/05/18 02:12:29;;;;;;;;;;;14.20;77.70;;;;;;4593613;19;20348;-21
2022/05/18 02:14:00;;;;;;;;;;;14.10;77.40;;;;;;4593986;19;19922;-21
2022/05/18 02:15:33;;;;;;;;;;;14.10;77.30;;;;;;4594121;19;19970;-21
2022/05/18 02:17:04;;;;;;;;;;;14.20;77.40;;;;;;4593524;19;19918;-21
2022/05/18 02:18:35;;;;;;;;;;;14.10;77.20;;;;;;4593383;19;19907;-21
2022/05/18 02:20:07;;;;;;;;;;;14.20;77.60;;;;;;4593025;19;19981;-21
2022/05/18 02:21:37;;;;;;;;;;;14.20;77.30;;;;;;4591920;19;19941;-21
2022/05/18 02:23:08;;;;;;;;;;;14.20;77.40;;;;;;4594163;19;19910;-21
2022/05/18 02:24:39;;;;;;;;;;;14.10;77.10;;;;;;4594009;19;19922;-21
2022/05/18 02:26:12;;;;;;;;;;;14.10;77.20;;;;;;4593956;19;19935;-21
2022/05/18 02:27:42;;;;;;;;;;;14.10;77.60;;;;;;4593963;19;19922;-21
2022/05/18 02:29:13;;;;;;;;;;;14.10;77.10;;;;;;4593330;19;19927;-21
2022/05/18 02:30:44;;;;;;;;;;;14.10;76.90;;;;;;4593542;19;19931;-21
2022/05/18 02:32:15;;;;;;;;;;;14.10;77.00;;;;;;4594146;19;20001;-21
2022/05/18 02:33:46;;;;;;;;;;;14.20;77.00;;;;;;4593003;19;20386;-22
2022/05/18 02:35:17;;;;;;;;;;;14.10;76.70;;;;;;4593527;19;20325;-21
2022/05/18 02:36:48;;;;;;;;;;;14.10;76.80;;;;;;4592446;19;19974;-21
2022/05/18 02:38:19;;;;;;;;;;;14.10;77.00;;;;;;4592973;19;19935;-21
2022/05/18 02:39:50;;;;;;;;;;;14.10;77.00;;;;;;4594177;19;19918;-21
2022/05/18 02:41:21;;;;;;;;;;;14.10;76.80;;;;;;4592546;19;19952;-20
2022/05/18 02:42:52;;;;;;;;;;;14.10;76.70;;;;;;4592273;19;19947;-21
2022/05/18 02:44:23;;;;;;;;;;;14.10;77.10;;;;;;4593494;19;19922;-21
2022/05/18 02:46:04;;;;;;;;;;;14.10;76.90;;;;;;4593139;19;19914;-21
2022/05/18 02:47:35;;;;;;;;;;;14.10;76.70;;;;;;4593362;19;19946;-21
2022/05/18 02:49:06;;;;;;;;;;;14.10;76.80;;;;;;4592600;19;19949;-21
2022/05/18 02:50:37;;;;;;;;;;;14.10;76.60;;;;;;4593410;19;19925;-21
2022/05/18 02:52:08;;;;;;;;;;;14.10;76.60;;;;;;4593211;19;19922;-21
2022/05/18 02:53:39;;;;;;;;;;;14.10;76.20;;;;;;4592145;19;19918;-21
2022/05/18 02:56:59;;;;;;;;;;;14.10;76.20;;;;;;4592982;19;20269;-21
2022/05/18 02:58:30;;;;;;;;;;;14.10;76.30;;;;;;4593762;19;19914;-22
2022/05/18 03:00:01;;;;;;;;;;;14.10;76.30;;;;;;4593348;19;20018;-21
2022/05/18 03:01:33;;;;;;;;;;;14.10;76.40;;;;;;4591282;19;19925;-21
2022/05/18 03:03:04;;;;;;;;;;;14.10;76.50;;;;;;4592717;19;19964;-21
2022/05/18 03:04:35;;;;;;;;;;;14.10;76.50;;;;;;4592778;19;20353;-20
2022/05/18 03:06:07;;;;;;;;;;;14.10;76.40;;;;;;4592860;19;19925;-22
2022/05/18 03:07:38;;;;;;;;;;;14.10;76.40;;;;;;4593191;19;19917;-21
2022/05/18 03:09:09;;;;;;;;;;;14.10;76.30;;;;;;4593214;19;19970;-21
2022/05/18 03:10:41;;;;;;;;;;;14.10;76.40;;;;;;4592610;19;20353;-21
2022/05/18 03:12:12;;;;;;;;;;;14.10;76.10;;;;;;4592853;19;19923;-21
2022/05/18 03:13:43;;;;;;;;;;;14.10;76.10;;;;;;4593134;19;20275;-21
2022/05/18 03:15:14;;;;;;;;;;;14.10;76.20;;;;;;4592998;19;19978;-21
2022/05/18 03:16:45;;;;;;;;;;;14.10;76.10;;;;;;4592728;19;19951;-22
2022/05/18 03:18:16;;;;;;;;;;;14.10;76.00;;;;;;4592930;19;20274;-21
2022/05/18 03:19:46;;;;;;;;;;;14.10;76.30;;;;;;4591993;19;19983;-21
2022/05/18 03:24:57;;;;;;;;;;;14.10;76.20;;;;;;4592610;19;19975;-21
2022/05/18 03:26:28;;;;;;;;;;;14.20;76.50;;;;;;4592901;19;20385;-21
2022/05/18 03:27:59;;;;;;;;;;;14.10;76.30;;;;;;4593447;19;19915;-20
2022/05/18 03:29:30;;;;;;;;;;;14.10;76.40;;;;;;4592382;19;19915;-22
2022/05/18 03:31:01;;;;;;;;;;;14.20;76.50;;;;;;4592507;19;19910;-21
2022/05/18 03:32:32;;;;;;;;;;;14.20;76.70;;;;;;4592766;19;19915;-21
2022/05/18 03:34:03;;;;;;;;;;;14.10;76.90;;;;;;4591466;19;19923;-21
2022/05/18 03:35:34;;;;;;;;;;;14.10;76.80;;;;;;4592420;19;19943;-21
2022/05/18 03:37:05;;;;;;;;;;;14.20;76.90;;;;;;4592870;19;19918;-21
2022/05/18 03:38:36;;;;;;;;;;;14.10;77.10;;;;;;4592903;19;19919;-21
2022/05/18 03:40:07;;;;;;;;;;;14.10;77.00;;;;;;4591357;19;19915;-21
2022/05/18 03:41:39;;;;;;;;;;;14.20;77.00;;;;;;4591484;19;20304;-21
2022/05/18 03:43:10;;;;;;;;;;;14.10;76.80;;;;;;4592428;19;19926;-21
2022/05/18 03:44:41;;;;;;;;;;;14.20;77.00;;;;;;4591992;19;19939;-21
2022/05/18 03:46:12;;;;;;;;;;;14.20;77.60;;;;;;4591915;19;19914;-21
2022/05/18 03:47:43;;;;;;;;;;;14.20;77.10;;;;;;4592426;19;19919;-22
2022/05/18 03:49:14;;;;;;;;;;;14.20;77.00;;;;;;4592570;19;19990;-21
2022/05/18 03:50:47;;;;;;;;;;;14.20;77.20;;;;;;4592468;19;20330;-21
2022/05/18 03:52:18;;;;;;;;;;;14.20;77.50;;;;;;4592061;19;19923;-21
2022/05/18 03:53:49;;;;;;;;;;;14.20;77.40;;;;;;4590897;19;19918;-20
2022/05/18 03:55:20;;;;;;;;;;;14.20;77.50;;;;;;4592720;19;19915;-21
2022/05/18 03:56:51;;;;;;;;;;;14.20;77.40;;;;;;4592259;19;19918;-21
2022/05/18 03:58:22;;;;;;;;;;;14.20;77.50;;;;;;4591991;19;19919;-21
2022/05/18 03:59:53;;;;;;;;;;;14.20;77.40;;;;;;4591061;19;19915;-21
2022/05/18 04:01:24;;;;;;;;;;;14.20;77.90;;;;;;4591010;19;19982;-21
2022/05/18 04:02:55;;;;;;;;;;;14.30;77.90;;;;;;4591644;19;19918;-21
2022/05/18 04:04:26;;;;;;;;;;;14.30;77.60;;;;;;4590944;19;19915;-22
2022/05/18 04:05:56;;;;;;;;;;;14.30;78.10;;;;;;4591718;19;19921;-21
2022/05/18 04:07:27;;;;;;;;;;;14.30;78.20;;;;;;4591095;19;19914;-21
2022/05/18 04:08:58;;;;;;;;;;;14.30;78.30;;;;;;4591318;19;19978;-21
2022/05/18 04:10:30;;;;;;;;;;;14.30;79.00;;;;;;4591856;19;19918;-21
2022/05/18 04:12:01;;;;;;;;;;;14.30;78.60;;;;;;4591137;19;19911;-21
2022/05/18 04:13:32;;;;;;;;;;;14.30;78.70;;;;;;4591311;19;19929;-21
2022/05/18 04:15:03;;;;;;;;;;;14.30;79.60;;;;;;4591662;19;19987;-21
2022/05/18 04:16:34;;;;;;;;;;;14.30;79.50;;;;;;4591414;19;19919;-21
2022/05/18 04:18:05;;;;;;;;;;;14.30;79.10;;;;;;4591815;19;19922;-21
2022/05/18 04:19:36;;;;;;;;;;;14.40;79.10;;;;;;4591347;19;20314;-21
2022/05/18 04:21:07;;;;;;;;;;;14.30;79.30;;;;;;4590076;19;19919;-21
2022/05/18 04:22:38;;;;;;;;;;;14.40;79.70;;;;;;4590780;19;19971;-21
2022/05/18 04:24:09;;;;;;;;;;;14.40;79.80;;;;;;4591825;19;20413;-22
2022/05/18 04:25:41;;;;;;;;;;;14.40;79.90;;;;;;4590228;19;20350;-21
2022/05/18 04:27:12;;;;;;;;;;;14.40;79.90;;;;;;4591171;19;19978;-21
2022/05/18 04:28:43;;;;;;;;;;;14.40;79.90;;;;;;4592069;19;19926;-21
2022/05/18 04:30:14;;;;;;;;;;;14.40;80.00;;;;;;4591432;19;19930;-21
2022/05/18 04:31:45;;;;;;;;;;;14.40;80.10;;;;;;4591332;19;19911;-21
2022/05/18 04:33:18;;;;;;;;;;;14.50;80.20;;;;;;4589685;19;19982;-21
2022/05/18 04:34:49;;;;;;;;;;;14.50;80.40;;;;;;4591198;19;19915;-21
2022/05/18 04:36:20;;;;;;;;;;;14.50;80.60;;;;;;4588663;19;19942;-21
2022/05/18 04:37:51;;;;;;;;;;;14.50;80.70;;;;;;4590297;19;19939;-21
2022/05/18 04:39:22;;;;;;;;;;;14.50;80.60;;;;;;4591590;19;19926;-21
2022/05/18 04:40:53;;;;;;;;;;;14.50;80.80;;;;;;4591311;19;19926;-21
2022/05/18 04:42:23;;;;;;;;;;;14.50;80.90;;;;;;4591086;19;19997;-21
2022/05/18 04:43:54;;;;;;;;;;;14.50;81.30;;;;;;4591046;19;19910;-22
2022/05/18 04:45:25;;;;;;;;;;;14.60;81.10;;;;;;4591695;19;19948;-21
2022/05/18 04:46:58;;;;;;;;;;;14.60;81.60;;;;;;4591346;19;19935;-21
2022/05/18 04:48:31;;;;;;;;;;;14.50;80.80;;;;;;4591087;19;19915;-22
2022/05/18 04:50:02;;;;;;;;;;;14.60;81.30;;;;;;4591844;19;19943;-21
2022/05/18 04:51:33;;;;;;;;;;;14.60;81.50;;;;;;4588759;19;19923;-21
2022/05/18 04:53:05;;;;;;;;;;;14.60;81.20;;;;;;4589293;19;20504;-21
2022/05/18 04:54:36;;;;;;;;;;;14.60;81.30;;;;;;4597444;19;19918;-21
2022/05/18 04:56:07;;;;;;;;;;;14.60;81.30;;;;;;4597769;19;19934;-21
2022/05/18 04:57:38;;;;;;;;;;;14.70;81.50;;;;;;4597864;19;20284;-21
2022/05/18 04:59:10;;;;;;;;;;;14.70;82.10;;;;;;4596389;19;19935;-21
2022/05/18 05:00:41;;;;;;;;;;;14.60;82.40;;;;;;4589588;19;20253;-22
2022/05/18 05:02:11;;;;;;;;;;;14.60;82.10;;;;;;4590032;19;19915;-21
2022/05/18 05:03:43;;;;;;;;;;;14.60;82.20;;;;;;4590247;19;19926;-21
2022/05/18 05:05:14;;;;;;;;;;;14.60;82.30;;;;;;4590214;19;19925;-21
2022/05/18 05:06:44;;;;;;;;;;;14.60;82.50;;;;;;4591122;19;19911;-21
2022/05/18 05:08:15;;;;;;;;;;;14.70;82.80;;;;;;4590704;19;19918;-22
2022/05/18 05:09:46;;;;;;;;;;;14.70;82.90;;;;;;4591255;19;19923;-21
2022/05/18 05:11:17;;;;;;;;;;;14.60;82.80;;;;;;4590725;19;19911;-21
2022/05/18 05:12:48;;;;;;;;;;;14.70;83.10;;;;;;4590713;19;19923;-21
2022/05/18 05:14:19;;;;;;;;;;;14.70;82.90;;;;;;4589943;19;19914;-22
2022/05/18 05:15:54;;;;;;;;;;;14.70;82.70;;;;;;4590063;19;19922;-22
2022/05/18 05:17:25;;;;;;;;;;;14.70;82.80;;;;;;4589259;19;20000;-21
2022/05/18 05:18:56;;;;;;;;;;;14.70;82.90;;;;;;4590088;19;19969;-21
2022/05/18 05:20:27;;;;;;;;;;;14.70;82.60;;;;;;4589716;19;19914;-21
2022/05/18 05:21:58;;;;;;;;;;;14.70;82.60;;;;;;4589868;19;19982;-21
2022/05/18 05:23:29;;;;;;;;;;;14.70;83.00;;;;;;4590734;19;20230;-22
2022/05/18 05:25:00;;;;;;;;;;;14.70;83.10;;;;;;4591031;19;19918;-21
2022/05/18 05:26:31;;;;;;;;;;;14.80;83.10;;;;;;4590596;19;19911;-21
2022/05/18 05:28:02;;;;;;;;;;;14.80;83.00;;;;;;4590625;19;19920;-21
2022/05/18 05:29:33;;;;;;;;;;;14.90;83.20;;;;;;4590681;19;19919;-21
2022/05/18 05:31:04;;;;;;;;;;;14.90;82.60;;;;;;4590488;19;19932;-21
2022/05/18 05:32:35;;;;;;;;;;;15.00;82.80;;;;;;4588489;19;19926;-20
2022/05/18 05:34:06;;;;;;;;;;;15.00;82.40;;;;;;4587782;19;19923;-21
2022/05/18 05:35:40;;;;;;;;;;;15.00;82.70;;;;;;4588433;19;19922;-20
2022/05/18 05:37:11;;;;;;;;;;;15.10;82.80;;;;;;4590348;19;19918;-21
2022/05/18 05:38:42;;;;;;;;;;;15.10;82.30;;;;;;4590353;19;19918;-21
2022/05/18 05:40:13;;;;;;;;;;;15.20;82.90;;;;;;4590385;19;19945;-21
2022/05/18 05:41:44;;;;;;;;;;;15.20;82.80;;;;;;4588900;19;19926;-21
2022/05/18 05:43:15;;;;;;;;;;;15.20;82.50;;;;;;4590025;19;19918;-21
2022/05/18 05:44:45;;;;;;;;;;;15.20;82.10;;;;;;4589171;19;19918;-21
2022/05/18 05:46:17;;;;;;;;;;;15.20;82.50;;;;;;4588589;19;19918;-21
2022/05/18 05:47:48;;;;;;;;;;;15.20;82.50;;;;;;4588641;19;20474;-21
2022/05/18 05:49:19;;;;;;;3.42;1.58;;;15.20;83.00;;;;;;4587801;19;19914;-21
2022/05/18 05:50:50;;;;;;;3.17;1.52;;;15.20;83.20;;;;;;4589769;19;20015;-21
2022/05/18 05:52:21;;;;;;;3.20;1.38;;;15.20;83.20;;;;;;4589438;19;20433;-22
2022/05/18 05:53:52;;;;;;;2.45;1.30;;;15.20;83.40;;;;;;4588492;19;20011;-21
2022/05/18 05:55:24;;;;;;;2.70;1.30;;;15.20;83.70;;;;;;4588789;19;20032;-21
2022/05/18 05:56:56;;;;;;;3.60;1.30;;;15.20;83.60;;;;;;4586766;19;20091;-21
2022/05/18 05:58:27;;;;;;;;;;;15.20;83.30;;;;;;4588555;19;20011;-21
2022/05/18 06:00:00;;;;;;;1.57;0.80;;;15.10;82.90;;;;;;4587765;19;19923;-21
2022/05/18 06:01:31;;;;;;;4.23;1.20;;;15.20;83.40;;;;;;4586358;19;20034;-21
2022/05/18 06:03:03;;;;;;;3.53;1.20;;;15.20;83.60;;;;;;4587780;19;20474;-22
2022/05/18 06:04:35;;;;;;;3.00;1.13;;;15.20;83.60;;;;;;4591587;19;20048;-22
2022/05/18 06:06:06;;;;;;;;;;;15.20;83.70;;;;;;4595503;19;20034;-21
2022/05/18 06:07:37;;;;;;;3.37;1.20;;;15.20;83.10;;;;;;4593850;19;19946;-21
2022/05/18 06:09:08;;;;;;;2.30;1.00;;;15.20;83.00;;;;;;4593311;19;20078;-21
2022/05/18 06:10:39;;;;;;;3.63;1.27;;;15.20;82.80;;;;;;4593469;19;20010;-21
2022/05/18 06:12:10;;;;;;;2.75;1.25;;;15.20;82.70;;;;;;4592476;19;20007;-22
2022/05/18 06:13:41;;;;;;;3.13;1.10;;;15.20;83.40;;;;;;4592147;19;20479;-21
2022/05/18 06:15:12;;;;;;;4.30;1.35;;;15.20;83.80;;;;;;4592120;19;20066;-21
2022/05/18 06:16:46;;;;;;;3.13;1.05;;;15.20;83.80;;;;;;4591991;19;20082;-22
2022/05/18 06:18:17;;;;;;;3.40;1.40;;;15.20;83.80;;;;;;4591195;19;20010;-21
2022/05/18 06:19:48;;;;;;;5.63;1.55;;;15.20;84.20;;;;;;4591352;19;20035;-21
2022/05/18 06:21:19;;;;;;;2.85;1.27;;;15.20;83.90;;;;;;4593020;19;20006;-21
2022/05/18 06:22:50;;;;;;;2.80;1.20;;;15.20;82.50;;;;;;4593411;19;20034;-21
2022/05/18 06:24:21;;;;;;;1.77;1.00;;;15.20;82.70;;;;;;4593016;19;20572;-22
2022/05/18 06:25:52;;;;;;;1.58;0.82;;;15.20;82.90;;;;;;4591449;19;20020;-21
2022/05/18 06:27:23;;;;;;;1.88;0.82;;;15.30;82.50;;;;;;4591741;19;20017;-22
2022/05/18 06:28:54;;;;;;;2.85;0.98;;;15.30;82.70;;;;;;4591973;19;20031;-21
2022/05/18 06:30:27;;;;;;;2.85;0.88;;;15.20;82.60;;;;;;4591071;19;20010;-21
2022/05/18 06:31:58;;;;;;;2.57;0.97;;;15.20;82.80;;;;;;4590000;19;20017;-21
2022/05/18 06:33:28;;;;;;;2.85;1.10;;;15.20;82.00;;;;;;4592012;19;20011;-21
2022/05/18 06:35:00;;;;;;;2.00;0.85;;;15.20;82.40;;;;;;4592517;19;20093;-21
2022/05/18 06:36:31;;;;;;;2.88;0.75;;;15.20;80.50;;;;;;4592403;19;20010;-21
2022/05/18 06:38:13;;;;;;;1.98;0.70;;;15.20;79.00;;;;;;4591711;19;20018;-21
2022/05/18 06:39:44;;;;;;;;;;;15.20;78.40;;;;;;4592777;19;20066;-22
2022/05/18 06:41:21;;;;;;;4.50;0.90;;;15.30;78.50;;;;;;4589319;19;19927;-21
2022/05/18 06:42:52;;;;;;;0.60;0.50;;;15.30;77.80;;;;;;4590880;19;20011;-22
2022/05/18 06:44:24;;;;;;;3.13;1.00;;;15.30;77.80;;;;;;4590924;19;20038;-21
2022/05/18 06:45:55;;;;;;;2.13;0.70;;;15.30;78.40;;;;;;4590114;19;20035;-21
2022/05/18 06:47:27;;;;;;;2.13;1.00;;;15.30;78.00;;;;;;4594528;19;20034;-21
2022/05/18 06:48:58;;;;;;;3.20;0.70;;;15.30;77.10;;;;;;4592403;19;20014;-21
2022/05/18 06:50:28;;;;;;;3.20;0.73;;;15.30;77.90;;;;;;4592019;19;20477;-21
2022/05/18 06:52:00;;;;;;;1.95;0.90;;;15.30;79.40;;;;;;4592555;19;20013;-20
2022/05/18 06:53:31;;;;;;;2.67;0.75;;;15.30;79.10;;;;;;4591836;19;20345;-20
2022/05/18 06:55:02;;;;;;;2.55;0.93;;;15.30;79.30;;;;;;4592639;19;20058;-21
2022/05/18 06:56:35;;;;;;;2.50;0.98;;;15.40;79.30;;;;;;4592769;19;20006;-20
2022/05/18 06:58:06;;;;;;;;;;;15.40;78.80;;;;;;4592371;19;20013;-21
2022/05/18 06:59:37;;;;;;;;;;;15.40;78.70;;;;;;4591958;19;19952;-21
2022/05/18 07:01:08;;;;;;;;;;;15.40;78.40;;;;;;4592279;19;19922;-21
2022/05/18 07:02:39;;;;;;;;;;;15.50;76.60;;;;;;4592268;19;19925;-21
2022/05/18 07:04:10;;;;;;;;;;;15.50;78.30;;;;;;4592371;19;19911;-21
2022/05/18 07:05:41;;;;;;;;;;;15.50;78.30;;;;;;4592717;19;20259;-21
2022/05/18 07:07:12;;;;;;;;;;;15.50;78.20;;;;;;4593033;19;19925;-21
2022/05/18 07:08:42;;;;;;;;;;;15.60;77.50;;;;;;4593522;19;19911;-21
2022/05/18 07:10:13;;;;;;;;;;;15.60;76.30;;;;;;4592667;19;19915;-22
2022/05/18 07:11:46;;;;;;;;;;;15.60;75.60;;;;;;4592017;19;19926;-21
2022/05/18 07:13:17;;;;;;;1.20;0.50;;;15.70;75.40;;;;;;4592564;19;19919;-20
2022/05/18 07:14:48;;;;;;;2.83;0.85;;;15.70;75.00;;;;;;4586558;19;20481;-21
2022/05/18 07:16:19;;;;;;;3.63;0.85;;;15.70;75.40;;;;;;4591389;19;20015;-21
2022/05/18 07:17:51;;;;;;;2.30;0.90;;;15.70;75.70;;;;;;4590472;19;20018;-21
2022/05/18 07:19:23;;;;;;;1.65;0.85;;;15.70;74.30;;;;;;4589267;19;20350;-21
2022/05/18 07:20:54;;;;;;;2.25;0.75;;;15.70;74.80;;;;;;4589741;19;20006;-21
2022/05/18 07:22:25;;;;;;;1.25;0.50;;;15.70;75.00;;;;;;4590662;19;20048;-21
2022/05/18 07:23:56;;;;;;;2.30;0.60;;;15.70;74.90;;;;;;4591526;19;20084;-21
2022/05/18 07:25:27;;;;;;;1.85;0.60;;;15.70;73.50;;;;;;4590675;19;20039;-21
2022/05/18 07:26:58;;;;;;;2.90;0.90;;;15.70;72.90;;;;;;4591325;19;20017;-21
2022/05/18 07:28:30;;;;;;;0.90;0.70;;;15.70;72.80;;;;;;4591641;19;20040;-21
2022/05/18 07:30:03;;;;;;;;;;;15.70;72.00;;;;;;4591471;19;20003;-21
2022/05/18 07:32:08;;;;;;;2.50;0.80;;;15.70;72.30;;;;;;4591357;19;19948;-21
2022/05/18 07:33:25;;;;;;;1.80;0.60;;;15.70;73.10;;;;;;4590533;19;20042;-22
2022/05/18 07:34:56;;;;;;;2.47;0.70;;;15.70;74.50;;;;;;4591472;19;20010;-21
2022/05/18 07:36:29;;;;;;;2.13;0.52;;;15.70;74.00;;;;;;4591549;19;20081;-20
2022/05/18 07:38:00;;;;;;;3.60;0.80;;;15.70;74.50;;;;;;4591981;19;20010;-21
2022/05/18 07:39:31;;;;;;;3.08;0.93;;;15.70;74.40;;;;;;4590108;19;20007;-21
2022/05/18 07:41:02;;;;;;;1.80;0.80;;;15.60;73.80;;;;;;4589802;19;20011;-21
2022/05/18 07:42:34;;;;;;;1.88;0.80;;;15.60;73.30;;;;;;4591178;19;20011;-21
2022/05/18 07:44:05;;;;;;;2.75;0.77;;;15.70;73.80;;;;;;4591577;19;20011;-20
2022/05/18 07:45:36;;;;;;;3.28;1.20;;;15.80;73.80;;;;;;4591244;19;20460;-20
2022/05/18 07:47:07;;;;;;;1.95;0.80;;;15.80;72.90;;;;;;4590344;19;20044;-22
2022/05/18 07:48:39;;;;;;;4.25;0.90;;;15.80;72.10;;;;;;4590064;19;20010;-21
2022/05/18 07:50:12;;;;;;;2.15;0.98;;;15.80;72.20;;;;;;4590083;19;20011;-21
2022/05/18 07:51:43;;;;;;;1.77;0.70;;;15.80;73.00;;;;;;4590762;19;20006;-21
2022/05/18 07:53:14;;;;;;;2.65;0.90;;;15.90;73.80;;;;;;4591261;19;20014;-20
2022/05/18 07:54:47;;;;;;;3.65;1.00;;;15.90;73.40;;;;;;4591362;19;20035;-21
2022/05/18 07:56:18;;;;;;;1.60;0.80;;;15.90;72.80;;;;;;4590679;19;20066;-21
2022/05/18 07:57:49;;;;;;;6.47;1.00;;;15.90;72.40;;;;;;4591230;19;20014;-21
2022/05/18 07:59:20;;;;;;;3.35;1.00;;;15.80;72.50;;;;;;4590432;19;20013;-21
2022/05/18 08:00:51;;;;;;;2.40;0.98;;;15.80;72.50;;;;;;4590156;19;20018;-20
2022/05/18 08:02:23;;;;;;;2.10;0.85;;;15.80;72.60;;;;;;4589956;19;20044;-21
2022/05/18 08:03:54;;;;;;;2.50;0.70;;;15.80;72.80;;;;;;4590397;19;20452;-22
2022/05/18 08:05:25;;;;;;;3.30;0.90;;;15.80;70.40;;;;;;4590415;19;20027;-22
2022/05/18 08:06:57;;;;;;;1.70;0.80;;;15.80;70.40;;;;;;4590935;19;20092;-22
2022/05/18 08:08:28;;;;;;;1.02;0.63;;;15.80;70.30;;;;;;4589535;19;20385;-21
2022/05/18 08:15:29;;;;;;;3.17;0.87;;;15.80;70.30;;;;;;4589708;19;20003;-21
2022/05/18 08:17:00;;;;;;;1.52;0.85;;;15.80;70.70;;;;;;4590255;19;20014;-22
2022/05/18 08:18:31;;;;;;;2.10;0.73;;;15.80;70.60;;;;;;4590748;19;20030;-22
2022/05/18 08:20:06;;;;;;;2.35;0.90;;;15.80;70.70;;;;;;4590604;19;20347;-21
2022/05/18 08:21:38;;;;;;;2.67;0.80;;;15.90;71.30;;;;;;4588559;19;20015;-22
2022/05/18 08:23:09;;;;;;;3.03;1.13;;;15.90;70.30;;;;;;4589890;19;20006;-22
2022/05/18 08:24:40;;;;;;;3.58;1.02;;;15.80;69.00;;;;;;4589578;19;20038;-21
2022/05/18 08:26:11;;;;;;;4.82;0.90;;;15.90;69.80;;;;;;4588814;19;20019;-22
2022/05/18 08:27:43;;;;;;;3.60;1.15;;;15.80;70.20;;;;;;4590055;19;20017;-22
2022/05/18 08:29:14;;;;;;;2.92;0.75;;;15.80;69.60;;;;;;4590137;19;20018;-22
2022/05/18 08:30:45;;;;;;;1.92;0.90;;;15.80;70.00;;;;;;4589133;19;20538;-21
2022/05/18 08:32:16;;;;;;;2.42;0.85;;;15.80;70.10;;;;;;4589884;19;20121;-21
2022/05/18 08:33:47;;;;;;;1.60;1.08;;;15.90;71.70;;;;;;4589524;19;20043;-22
2022/05/18 08:35:18;;;;;;;1.25;0.70;;;15.90;72.30;;;;;;4590423;19;20014;-21
2022/05/18 08:36:49;;;;;;;2.20;0.90;;;15.90;71.30;;;;;;4590625;19;20062;-21
2022/05/18 08:38:21;;;;;;;1.85;0.88;;;16.00;71.50;;;;;;4590918;19;20013;-22
2022/05/18 08:39:52;;;;;;;1.95;0.73;;;15.90;70.90;;;;;;4588741;19;20007;-21
2022/05/18 08:41:30;;;;;;;2.05;0.90;;;15.90;71.40;;;;;;4586073;19;20110;-21
2022/05/18 08:43:05;;;;;;;4.47;0.70;;;15.90;71.10;;;;;;4588667;19;20007;-21